This is the latest recevied weather packets stored in our database for station/object WD8EHT. If no packets are shown the sender has not sent any weather packets the latest 1 day(s).
| Time | Temp. | Humidity | Pressure | Rain* | Wind** | Luminosity | Snow |
|---|---|---|---|---|---|---|---|
| 1777991044 | 8.33° C | 90% | 1005 hPa | 1.78 mm | 0 m/s | 70 W/m² | - |
| 1777990741 | 8.33° C | 89% | 1004.6 hPa | 1.27 mm | 0 m/s | 68 W/m² | - |
| 1777990439 | 8.33° C | 84% | 1004.4 hPa | 1.27 mm | 0 m/s | 41 W/m² | - |
| 1777990135 | 8.33° C | 84% | 1004.5 hPa | 1.78 mm | 0 m/s | 45 W/m² | - |
| 1777989832 | 8.33° C | 83% | 1004.8 hPa | 1.78 mm | 0.45 m/s, 354° | 73 W/m² | - |
| 1777989529 | 8.89° C | 82% | 1004.8 hPa | 3.05 mm | 0.45 m/s, 313° | 64 W/m² | - |
| 1777989225 | 9.44° C | 81% | 1004.6 hPa | 1.27 mm | 0 m/s | 67 W/m² | - |
| 1777988921 | 10° C | 78% | 1004.8 hPa | 0 mm | 0 m/s | 53 W/m² | - |
| 1777988618 | 10° C | 76% | 1004.7 hPa | 0 mm | 0 m/s | 55 W/m² | - |
| 1777988315 | 10.56° C | 73% | 1004.6 hPa | 0 mm | 0.45 m/s, 337° | 65 W/m² | - |
| 1777988012 | 10.56° C | 73% | 1004.4 hPa | 0 mm | 0.45 m/s, 17° | 72 W/m² | - |
| 1777987707 | 10.56° C | 71% | 1004.8 hPa | 0 mm | 0.45 m/s, 283° | 69 W/m² | - |
| 1777987405 | 10.56° C | 71% | 1004.4 hPa | 0 mm | 1.34 m/s, 39° | 64 W/m² | - |
| 1777987102 | 10.56° C | 71% | 1004.6 hPa | 0 mm | 0.45 m/s, 42° | 50 W/m² | - |
| 1777986800 | 10.56° C | 69% | 1004.1 hPa | 0 mm | 1.34 m/s, 350° | 34 W/m² | - |
| 1777986497 | 10.56° C | 70% | 1003.9 hPa | 0 mm | 1.34 m/s, 18° | 41 W/m² | - |
| 1777986195 | 10.56° C | 69% | 1003.5 hPa | 0 mm | 0.89 m/s, 20° | 26 W/m² | - |
| 1777985892 | 11.11° C | 71% | 1003.2 hPa | 0 mm | 0 m/s | 42 W/m² | - |
| 1777985589 | 11.11° C | 68% | 1003.3 hPa | 0 mm | 0.89 m/s, 35° | 28 W/m² | - |
| 1777985286 | 11.11° C | 68% | 1003.8 hPa | 0 mm | 0.45 m/s, 335° | 9 W/m² | - |
| 1777984982 | 11.11° C | 67% | 1003.4 hPa | 0 mm | 1.34 m/s, 56° | 13 W/m² | - |
| 1777984678 | 11.11° C | 67% | 1002.5 hPa | 0 mm | 0.89 m/s, 24° | 31 W/m² | - |
| 1777984375 | 11.67° C | 67% | 1002.6 hPa | 0 mm | 1.34 m/s, 295° | 44 W/m² | - |
| 1777984071 | 11.67° C | 68% | 1002.7 hPa | 0 mm | 0.89 m/s, 10° | 76 W/m² | - |
| 1777983769 | 11.11° C | 70% | 1002.7 hPa | 0 mm | 0.45 m/s, 328° | 39 W/m² | - |
* Rain latest hour (hover to see other rain measurements)
** Current wind speed in m/s (hover to see current wind gust speed)